createdAt,value
2019-04-27T00:00:28.495Z,99.99
2019-04-27T00:01:25.206Z,99.99
2019-04-27T00:03:17.971Z,99.99
2019-04-27T00:04:19.212Z,99.99
2019-04-27T00:06:10.665Z,99.99
2019-04-27T00:07:10.600Z,99.99
2019-04-27T00:09:03.561Z,99.99
2019-04-27T00:10:03.573Z,99.99
2019-04-27T00:11:56.068Z,99.99
2019-04-27T00:12:57.217Z,99.99
2019-04-27T00:14:54.462Z,99.99
2019-04-27T00:15:48.701Z,99.99
2019-04-27T00:17:48.679Z,99.99
2019-04-27T00:18:45.140Z,99.99
2019-04-27T00:20:34.180Z,99.99
2019-04-27T00:21:34.104Z,99.99
2019-04-27T00:23:26.871Z,99.99
2019-04-27T00:24:26.833Z,99.99
2019-04-27T00:26:19.610Z,99.99
2019-04-27T00:27:19.540Z,99.99
2019-04-27T00:29:13.714Z,99.99
2019-04-27T00:30:13.787Z,99.99
2019-04-27T00:32:05.009Z,99.99
2019-04-27T00:33:05.327Z,99.99
2019-04-27T00:34:57.691Z,99.99
2019-04-27T00:35:57.624Z,99.99
2019-04-27T00:37:50.413Z,99.99
2019-04-27T00:38:50.338Z,99.99
2019-04-27T00:40:43.681Z,99.99
2019-04-27T00:41:43.103Z,99.99
2019-04-27T00:43:35.870Z,99.99
2019-04-27T00:44:35.802Z,99.99
2019-04-27T00:46:28.598Z,99.99
2019-04-27T00:47:28.521Z,99.99
2019-04-27T00:49:21.279Z,99.99
2019-04-27T00:50:21.220Z,99.99
2019-04-27T00:52:14.048Z,99.99
2019-04-27T00:53:13.934Z,99.99
2019-04-27T00:55:06.694Z,99.99
2019-04-27T00:56:06.626Z,99.99
2019-04-27T00:57:59.408Z,99.99
2019-04-27T00:58:59.330Z,99.99
2019-04-27T01:00:53.878Z,99.99
2019-04-27T01:01:53.360Z,99.99
2019-04-27T01:03:44.815Z,99.99
2019-04-27T01:04:44.749Z,99.99
2019-04-27T01:06:37.535Z,99.99
2019-04-27T01:07:37.447Z,99.99
2019-04-27T01:09:30.228Z,99.99
2019-04-27T01:10:30.155Z,99.99
2019-04-27T01:12:23.731Z,99.99
2019-04-27T01:13:23.087Z,99.99
2019-04-27T01:15:15.624Z,99.99
2019-04-27T01:16:17.873Z,99.99
2019-04-27T01:18:13.221Z,99.99
2019-04-27T01:19:08.431Z,99.99
2019-04-27T01:21:01.032Z,99.99
2019-04-27T01:22:00.967Z,99.99
2019-04-27T01:23:53.805Z,99.99
2019-04-27T01:24:53.721Z,99.99
2019-04-27T01:26:46.507Z,99.99
2019-04-27T01:27:46.431Z,99.99
2019-04-27T01:29:41.248Z,99.99
2019-04-27T01:30:39.248Z,99.99
2019-04-27T01:32:33.973Z,99.99
2019-04-27T01:33:31.835Z,99.99
2019-04-27T01:35:24.604Z,99.99
2019-04-27T01:36:24.526Z,99.99
2019-04-27T01:38:19.094Z,99.99
2019-04-27T01:39:18.839Z,99.99
2019-04-27T01:41:10.082Z,99.99
2019-04-27T01:42:10.580Z,99.99
2019-04-27T01:44:02.780Z,99.99
2019-04-27T01:45:02.703Z,99.99
2019-04-27T01:46:55.485Z,99.99
2019-04-27T01:47:55.390Z,99.99
2019-04-27T01:49:49.521Z,99.99
2019-04-27T01:50:49.231Z,99.99
2019-04-27T01:52:40.879Z,99.99
2019-04-27T01:53:40.803Z,99.99
2019-04-27T01:56:00.243Z,99.99
2019-04-27T01:57:00.975Z,99.99
2019-04-27T01:58:52.946Z,99.99
2019-04-27T01:59:52.874Z,99.99
2019-04-27T02:01:45.645Z,99.99
2019-04-27T02:02:45.593Z,99.99
2019-04-27T02:04:39.576Z,99.99
2019-04-27T02:05:39.141Z,99.99
2019-04-27T02:07:31.101Z,99.99
2019-04-27T02:08:30.997Z,99.99
2019-04-27T02:10:23.821Z,99.99
2019-04-27T02:11:23.746Z,99.99
2019-04-27T02:13:16.515Z,99.99
2019-04-27T02:14:16.439Z,99.99
2019-04-27T02:16:09.202Z,99.99
2019-04-27T02:17:09.688Z,99.99
2019-04-27T02:19:01.888Z,99.99
2019-04-27T02:20:01.819Z,99.99
2019-04-27T02:21:54.606Z,99.99
2019-04-27T02:22:54.541Z,99.99
2019-04-27T02:24:49.123Z,99.99
2019-04-27T02:25:47.289Z,99.99
2019-04-27T02:27:40.120Z,99.99
2019-04-27T02:28:40.077Z,99.99
2019-04-27T02:30:32.873Z,99.99
2019-04-27T02:31:32.782Z,99.99
2019-04-27T02:33:25.615Z,99.99
2019-04-27T02:34:25.540Z,99.99
2019-04-27T02:36:20.193Z,99.99
2019-04-27T02:37:19.994Z,99.99
2019-04-27T02:39:11.114Z,99.99
2019-04-27T02:40:11.040Z,99.99
2019-04-27T02:42:03.865Z,99.99
2019-04-27T02:43:03.797Z,99.99
2019-04-27T02:44:56.636Z,99.99
2019-04-27T02:45:56.547Z,99.99
2019-04-27T02:47:51.779Z,99.99
2019-04-27T02:48:58.957Z,99.99
2019-04-27T02:50:42.052Z,99.99
2019-04-27T02:51:43.013Z,99.99
2019-04-27T02:53:34.744Z,99.99
2019-04-27T02:54:34.659Z,99.99
2019-04-27T02:56:27.444Z,99.99
2019-04-27T02:57:29.730Z,99.99
2019-04-27T02:59:20.135Z,99.99
2019-04-27T03:00:20.674Z,99.99
2019-04-27T03:02:12.896Z,99.99
2019-04-27T03:03:12.830Z,99.99
2019-04-27T03:05:05.659Z,99.99
2019-04-27T03:06:05.581Z,99.99
2019-04-27T03:07:59.615Z,99.99
2019-04-27T03:09:00.463Z,99.99
2019-04-27T03:10:51.073Z,99.99
2019-04-27T03:11:50.990Z,99.99
2019-04-27T03:13:43.791Z,99.99
2019-04-27T03:14:43.749Z,99.99
2019-04-27T03:16:36.511Z,99.99
2019-04-27T03:17:36.431Z,99.99
2019-04-27T03:19:30.021Z,99.99
2019-04-27T03:20:30.042Z,99.99
2019-04-27T03:22:21.879Z,99.99
2019-04-27T03:23:21.818Z,99.99
2019-04-27T03:25:15.427Z,99.99
2019-04-27T03:26:14.531Z,99.99
2019-04-27T03:28:07.340Z,99.99
2019-04-27T03:29:07.274Z,99.99
2019-04-27T03:31:02.478Z,99.99
2019-04-27T03:32:01.918Z,99.99
2019-04-27T03:33:58.564Z,99.99
2019-04-27T03:34:52.872Z,99.99
2019-04-27T03:36:45.537Z,99.99
2019-04-27T03:37:45.459Z,99.99
2019-04-27T03:39:39.737Z,99.99
2019-04-27T03:40:40.297Z,99.99
2019-04-27T03:42:31.013Z,99.99
2019-04-27T03:43:30.939Z,99.99
2019-04-27T03:45:23.755Z,99.99
2019-04-27T03:46:23.680Z,99.99
2019-04-27T03:48:16.447Z,99.99
2019-04-27T03:49:31.153Z,99.99
2019-04-27T03:51:10.113Z,99.99
2019-04-27T03:52:09.637Z,99.99
2019-04-27T03:54:01.876Z,99.99
2019-04-27T03:55:01.867Z,99.99
2019-04-27T03:56:54.586Z,99.99
2019-04-27T03:57:54.504Z,99.99
2019-04-27T03:59:47.293Z,99.99
2019-04-27T04:00:49.565Z,99.99
2019-04-27T04:02:40.596Z,99.99
2019-04-27T04:03:39.915Z,99.99
2019-04-27T04:05:32.701Z,99.99
2019-04-27T04:06:32.621Z,99.99
2019-04-27T04:08:25.445Z,99.99
2019-04-27T04:09:25.359Z,99.99
2019-04-27T04:11:19.820Z,99.99
2019-04-27T04:12:19.733Z,99.99
2019-04-27T04:14:10.797Z,99.99
2019-04-27T04:15:10.734Z,99.99
2019-04-27T04:17:03.493Z,99.99
2019-04-27T04:18:03.432Z,99.99
2019-04-27T04:19:58.497Z,99.99
2019-04-27T04:20:56.128Z,99.99
2019-04-27T04:22:51.242Z,99.99
2019-04-27T04:23:49.493Z,99.99
2019-04-27T04:25:41.583Z,99.99
2019-04-27T04:26:41.516Z,99.99
2019-04-27T04:28:34.306Z,99.99
2019-04-27T04:29:34.236Z,99.99
2019-04-27T04:31:32.139Z,99.99
2019-04-27T04:32:29.567Z,99.99
2019-04-27T04:34:20.093Z,99.99
2019-04-27T04:35:21.273Z,99.99
2019-04-27T04:37:12.452Z,99.99
2019-04-27T04:38:12.360Z,99.99
2019-04-27T04:40:05.187Z,99.99
2019-04-27T04:41:05.116Z,99.99
2019-04-27T04:43:00.342Z,99.99
2019-04-27T04:43:59.903Z,99.99
2019-04-27T04:45:50.562Z,99.99
2019-04-27T04:46:50.499Z,99.99
2019-04-27T04:48:43.333Z,99.99
2019-04-27T04:49:43.262Z,99.99
2019-04-27T04:51:36.021Z,99.99
2019-04-27T04:52:35.951Z,99.99
2019-04-27T04:54:29.989Z,99.99
2019-04-27T04:55:30.546Z,99.99
2019-04-27T04:57:21.959Z,99.99
2019-04-27T04:58:21.379Z,99.99
2019-04-27T05:00:14.152Z,99.99
2019-04-27T05:01:14.081Z,99.99
2019-04-27T05:03:06.870Z,99.99
2019-04-27T05:04:06.795Z,99.99
2019-04-27T05:05:59.549Z,99.99
2019-04-27T05:06:59.487Z,99.99
2019-04-27T05:08:52.260Z,99.99
2019-04-27T05:09:52.185Z,99.99
2019-04-27T05:11:44.944Z,99.99
2019-04-27T05:12:44.881Z,99.99
2019-04-27T05:14:38.917Z,99.99
2019-04-27T05:15:39.336Z,99.99
2019-04-27T05:17:30.406Z,99.99
2019-04-27T05:18:30.299Z,99.99
2019-04-27T05:20:26.291Z,99.99
2019-04-27T05:21:22.984Z,99.99
2019-04-27T05:23:15.793Z,99.99
2019-04-27T05:24:15.709Z,99.99
2019-04-27T05:26:09.213Z,99.99
2019-04-27T05:27:09.242Z,99.99
2019-04-27T05:29:01.207Z,99.99
2019-04-27T05:30:01.127Z,99.99
2019-04-27T05:31:53.934Z,99.99
2019-04-27T05:32:53.834Z,99.99
2019-04-27T05:34:46.601Z,99.99
2019-04-27T05:35:46.518Z,99.99
2019-04-27T05:37:39.287Z,99.99
2019-04-27T05:38:39.852Z,99.99
2019-04-27T05:40:31.998Z,99.99
2019-04-27T05:41:37.653Z,99.99
2019-04-27T05:43:25.611Z,99.99
2019-04-27T05:44:24.615Z,99.99
2019-04-27T05:46:19.015Z,99.99
2019-04-27T05:47:18.962Z,99.99
2019-04-27T05:49:10.101Z,99.99
2019-04-27T05:50:13.415Z,99.99
2019-04-27T05:52:02.812Z,99.99
2019-04-27T05:53:02.757Z,99.99
2019-04-27T05:54:55.547Z,99.99
2019-04-27T05:55:55.458Z,99.99
2019-04-27T05:57:49.042Z,99.99
2019-04-27T05:58:49.132Z,99.99
2019-04-27T06:00:40.918Z,99.99
2019-04-27T06:01:40.844Z,99.99
2019-04-27T06:03:33.635Z,99.99
2019-04-27T06:04:33.539Z,99.99
2019-04-27T06:06:26.375Z,99.99
2019-04-27T06:07:26.308Z,99.99
2019-04-27T06:09:19.522Z,99.99
2019-04-27T06:10:19.838Z,99.99
2019-04-27T06:12:11.755Z,99.99
2019-04-27T06:13:11.697Z,99.99
2019-04-27T06:15:04.486Z,99.99
2019-04-27T06:16:04.427Z,99.99
2019-04-27T06:17:57.171Z,99.99
2019-04-27T06:18:57.110Z,99.99
2019-04-27T06:20:55.029Z,99.99
2019-04-27T06:21:50.118Z,99.99
2019-04-27T06:23:42.603Z,99.99
2019-04-27T06:24:42.538Z,99.99
2019-04-27T06:26:35.308Z,99.99
2019-04-27T06:27:35.268Z,99.99
2019-04-27T06:29:29.261Z,99.99
2019-04-27T06:30:29.262Z,99.99
2019-04-27T06:32:20.779Z,99.99
2019-04-27T06:33:29.567Z,99.99
2019-04-27T06:35:13.463Z,99.99
2019-04-27T06:36:13.385Z,99.99
2019-04-27T06:38:06.166Z,99.99
2019-04-27T06:39:06.119Z,99.99
2019-04-27T06:40:59.036Z,99.99
2019-04-27T06:42:01.221Z,99.99
2019-04-27T06:43:51.545Z,99.99
2019-04-27T06:44:51.478Z,99.99
2019-04-27T06:46:44.261Z,99.99
2019-04-27T06:47:44.180Z,99.99
2019-04-27T06:49:36.974Z,99.99
2019-04-27T06:50:36.877Z,99.99
2019-04-27T06:52:29.651Z,99.99
2019-04-27T06:53:29.588Z,99.99
2019-04-27T06:55:22.402Z,99.99
2019-04-27T06:56:22.325Z,99.99
2019-04-27T06:58:15.090Z,99.99
2019-04-27T06:59:15.050Z,99.99
2019-04-27T07:01:09.469Z,99.99
2019-04-27T07:02:08.716Z,99.99
2019-04-27T07:04:00.486Z,99.99
2019-04-27T07:05:00.418Z,99.99
2019-04-27T07:06:56.137Z,99.99
2019-04-27T07:07:53.124Z,99.99
2019-04-27T07:09:45.894Z,99.99
2019-04-27T07:10:45.818Z,99.99
2019-04-27T07:12:40.999Z,99.99
2019-04-27T07:13:39.049Z,99.99
2019-04-27T07:15:31.371Z,99.99
2019-04-27T07:16:31.212Z,99.99
2019-04-27T07:18:23.976Z,99.99
2019-04-27T07:19:23.912Z,99.99
2019-04-27T07:21:20.108Z,99.99
2019-04-27T07:22:16.669Z,99.99
2019-04-27T07:24:09.463Z,99.99
2019-04-27T07:25:09.412Z,99.99
2019-04-27T07:27:02.174Z,99.99
2019-04-27T07:28:02.109Z,99.99
2019-04-27T07:29:55.712Z,99.99
2019-04-27T07:30:55.654Z,99.99
2019-04-27T07:32:48.923Z,99.99
2019-04-27T07:33:49.415Z,99.99
2019-04-27T07:35:41.205Z,99.99
2019-04-27T07:36:41.123Z,99.99
2019-04-27T07:38:33.935Z,99.99
2019-04-27T07:39:33.840Z,99.99
2019-04-27T07:41:26.621Z,99.99
2019-04-27T07:42:26.542Z,99.99
2019-04-27T07:44:19.465Z,99.99
2019-04-27T07:45:19.587Z,99.99
2019-04-27T07:47:12.036Z,99.99
2019-04-27T07:48:11.956Z,99.99
2019-04-27T07:50:04.754Z,99.99
2019-04-27T07:51:04.696Z,99.99
2019-04-27T07:52:58.709Z,99.99
2019-04-27T07:53:58.919Z,99.99
2019-04-27T07:55:50.268Z,99.99
2019-04-27T07:56:50.190Z,99.99
2019-04-27T07:58:42.960Z,99.99
2019-04-27T07:59:42.899Z,99.99
2019-04-27T08:01:35.685Z,99.99
2019-04-27T08:02:35.595Z,99.99
2019-04-27T08:04:28.748Z,99.99
2019-04-27T08:05:29.197Z,99.99
2019-04-27T08:07:21.125Z,99.99
2019-04-27T08:08:21.033Z,99.99
2019-04-27T08:10:13.825Z,99.99
2019-04-27T08:11:13.752Z,99.99
2019-04-27T08:13:06.577Z,99.99
2019-04-27T08:14:06.488Z,99.99
2019-04-27T08:15:59.261Z,99.99
2019-04-27T08:16:59.199Z,99.99
2019-04-27T08:18:52.081Z,99.99
2019-04-27T08:19:51.999Z,99.99
2019-04-27T08:21:46.554Z,99.99
2019-04-27T08:22:44.696Z,99.99
2019-04-27T08:24:39.410Z,99.99
2019-04-27T08:25:39.097Z,99.99
2019-04-27T08:27:30.224Z,99.99
2019-04-27T08:28:30.139Z,99.99
2019-04-27T08:30:22.938Z,99.99
2019-04-27T08:31:22.839Z,99.99
2019-04-27T08:33:15.675Z,99.99
2019-04-27T08:34:15.600Z,99.99
2019-04-27T08:36:08.983Z,99.99
2019-04-27T08:37:09.148Z,99.99
2019-04-27T08:39:01.092Z,99.99
2019-04-27T08:40:01.014Z,99.99
2019-04-27T08:41:53.798Z,99.99
2019-04-27T08:42:55.699Z,99.99
2019-04-27T08:44:46.511Z,99.99
2019-04-27T08:45:46.436Z,99.99
2019-04-27T08:47:41.644Z,99.99
2019-04-27T08:48:39.464Z,99.99
2019-04-27T08:50:31.946Z,99.99
2019-04-27T08:51:31.885Z,99.99
2019-04-27T08:53:24.665Z,99.99
2019-04-27T08:54:24.588Z,99.99
2019-04-27T08:56:17.347Z,99.83
2019-04-27T08:57:18.822Z,99.73
2019-04-27T08:59:10.062Z,98.39
2019-04-27T09:00:09.989Z,99.59
2019-04-27T09:02:02.806Z,98.49
2019-04-27T09:03:02.733Z,97.62
2019-04-27T09:04:55.510Z,95.02
2019-04-27T09:05:55.441Z,95.65
2019-04-27T09:07:49.624Z,93.43
2019-04-27T09:08:49.630Z,93.62
2019-04-27T09:10:40.978Z,93.62
2019-04-27T09:11:40.921Z,91.41
2019-04-27T09:13:33.710Z,91.02
2019-04-27T09:14:33.632Z,89.14
2019-04-27T09:16:26.413Z,83.00
2019-04-27T09:17:26.352Z,82.09
2019-04-27T09:19:19.161Z,84.46
2019-04-27T09:20:19.089Z,83.55
2019-04-27T09:22:15.856Z,84.99
2019-04-27T09:23:11.797Z,84.81
2019-04-27T09:25:04.599Z,85.87
2019-04-27T09:26:04.537Z,88.14
2019-04-27T09:27:57.296Z,88.10
2019-04-27T09:28:57.244Z,89.15
2019-04-27T09:30:50.022Z,89.73
2019-04-27T09:31:49.954Z,88.00
2019-04-27T09:33:42.724Z,88.33
2019-04-27T09:34:42.696Z,86.35
2019-04-27T09:36:35.463Z,86.11
2019-04-27T09:37:36.621Z,83.51
2019-04-27T09:39:28.178Z,81.10
2019-04-27T09:40:28.120Z,82.59
2019-04-27T09:42:20.899Z,81.91
2019-04-27T09:43:20.841Z,80.85
2019-04-27T09:45:13.639Z,79.31
2019-04-27T09:46:13.542Z,80.62
2019-04-27T09:48:06.694Z,81.01
2019-04-27T09:49:07.420Z,80.62
2019-04-27T09:50:59.049Z,82.70
2019-04-27T09:51:58.989Z,79.71
2019-04-27T09:53:51.753Z,79.33
2019-04-27T09:54:51.801Z,80.68
2019-04-27T09:56:44.482Z,81.16
2019-04-27T09:57:44.407Z,81.12
2019-04-27T09:59:39.348Z,82.32
2019-04-27T10:00:37.181Z,82.42
2019-04-27T10:02:29.903Z,82.37
2019-04-27T10:03:29.930Z,83.29
2019-04-27T10:05:22.697Z,83.04
2019-04-27T10:06:22.608Z,81.98
2019-04-27T10:08:16.966Z,80.92
2019-04-27T10:09:15.955Z,78.03
2019-04-27T10:11:08.115Z,77.75
2019-04-27T10:12:08.028Z,78.81
2019-04-27T10:14:00.841Z,76.78
2019-04-27T10:15:00.778Z,77.46
2019-04-27T10:16:55.665Z,76.69
2019-04-27T10:17:53.525Z,76.06
2019-04-27T10:19:46.323Z,75.76
2019-04-27T10:20:58.296Z,77.11
2019-04-27T10:22:42.810Z,76.53
2019-04-27T10:23:38.957Z,75.96
2019-04-27T10:25:31.741Z,76.63
2019-04-27T10:26:31.671Z,76.63
2019-04-27T10:28:24.450Z,75.80
2019-04-27T10:29:24.382Z,75.61
2019-04-27T10:31:17.309Z,76.82
2019-04-27T10:32:17.238Z,77.78
2019-04-27T10:34:09.995Z,75.51
2019-04-27T10:35:09.935Z,74.93
2019-04-27T10:37:02.777Z,75.90
2019-04-27T10:38:02.681Z,74.45
2019-04-27T10:39:56.039Z,74.90
2019-04-27T10:40:55.435Z,73.01
2019-04-27T10:42:48.485Z,74.74
2019-04-27T10:43:48.424Z,74.84
2019-04-27T10:45:41.191Z,75.03
2019-04-27T10:46:41.132Z,74.65
2019-04-27T10:48:34.112Z,73.62
2019-04-27T10:49:33.858Z,73.85
2019-04-27T10:51:26.622Z,72.60
2019-04-27T10:52:26.555Z,72.21
2019-04-27T10:54:19.317Z,71.06
2019-04-27T10:55:19.262Z,71.92
2019-04-27T10:57:12.064Z,70.54
2019-04-27T10:58:11.975Z,70.67
2019-04-27T11:00:06.580Z,70.51
2019-04-27T11:01:05.572Z,70.70
2019-04-27T11:02:58.349Z,70.74
2019-04-27T11:03:57.599Z,68.52
2019-04-27T11:05:50.208Z,70.06
2019-04-27T11:06:50.164Z,70.42
2019-04-27T11:08:42.927Z,69.93
2019-04-27T11:09:42.860Z,69.16
2019-04-27T11:11:36.359Z,69.45
2019-04-27T11:12:35.575Z,68.59
2019-04-27T11:14:28.350Z,69.16
2019-04-27T11:15:28.302Z,69.93
2019-04-27T11:17:21.078Z,69.23
2019-04-27T11:18:21.087Z,70.57
2019-04-27T11:20:13.779Z,71.25
2019-04-27T11:21:13.742Z,70.38
2019-04-27T11:23:09.830Z,71.31
2019-04-27T11:24:06.415Z,71.41
2019-04-27T11:25:59.187Z,71.83
2019-04-27T11:26:59.139Z,70.67
2019-04-27T11:28:51.909Z,70.42
2019-04-27T11:29:51.841Z,69.84
2019-04-27T11:31:46.400Z,70.70
2019-04-27T11:32:44.549Z,69.07
2019-04-27T11:34:38.150Z,67.78
2019-04-27T11:35:37.319Z,68.26
2019-04-27T11:37:30.094Z,69.32
2019-04-27T11:38:30.028Z,69.51
2019-04-27T11:40:22.822Z,67.78
2019-04-27T11:41:22.770Z,69.13
2019-04-27T11:43:16.071Z,69.77
2019-04-27T11:44:17.022Z,70.44
2019-04-27T11:46:08.406Z,69.29
2019-04-27T11:47:08.275Z,69.29
2019-04-27T11:49:01.063Z,69.61
2019-04-27T11:50:00.991Z,68.65
2019-04-27T11:51:53.768Z,68.23
2019-04-27T11:52:53.718Z,68.19
2019-04-27T11:54:46.500Z,68.87
2019-04-27T11:55:46.423Z,70.31
2019-04-27T11:57:39.208Z,71.22
2019-04-27T11:58:39.153Z,70.64
2019-04-27T12:00:31.938Z,70.35
2019-04-27T12:01:31.861Z,68.90
2019-04-27T12:03:24.672Z,70.06
2019-04-27T12:04:26.245Z,70.64
2019-04-27T12:06:17.342Z,71.12
2019-04-27T12:07:17.282Z,71.98
2019-04-27T12:09:10.063Z,70.15
2019-04-27T12:10:09.991Z,70.50
2019-04-27T12:12:15.031Z,70.70
2019-04-27T12:13:02.714Z,70.21
2019-04-27T12:14:56.042Z,70.21
2019-04-27T12:15:55.431Z,68.84
2019-04-27T12:17:48.193Z,67.93
2019-04-27T12:18:49.178Z,69.18
2019-04-27T12:20:40.932Z,68.96
2019-04-27T12:21:40.866Z,69.47
2019-04-27T12:23:37.085Z,70.72
2019-04-27T12:24:33.597Z,70.76
2019-04-27T12:26:26.341Z,70.21
2019-04-27T12:27:26.290Z,70.02
2019-04-27T12:29:19.154Z,69.77
2019-04-27T12:30:19.079Z,70.02
2019-04-27T12:32:11.882Z,68.99
2019-04-27T12:33:11.816Z,66.65
2019-04-27T12:35:06.603Z,66.07
2019-04-27T12:36:04.537Z,66.49
2019-04-27T12:37:57.312Z,68.23
2019-04-27T12:38:57.257Z,68.38
2019-04-27T12:40:50.020Z,69.06
2019-04-27T12:41:49.983Z,68.35
2019-04-27T12:43:42.724Z,69.31
2019-04-27T12:44:42.660Z,70.37
2019-04-27T12:46:35.548Z,69.31
2019-04-27T12:47:36.461Z,70.09
2019-04-27T12:49:28.226Z,68.44
2019-04-27T12:50:28.155Z,67.81
2019-04-27T12:52:20.919Z,69.29
2019-04-27T12:53:20.859Z,68.00
2019-04-27T12:55:16.752Z,67.74
2019-04-27T12:56:13.584Z,67.74
2019-04-27T12:58:06.392Z,66.78
2019-04-27T12:59:06.283Z,67.71
2019-04-27T13:00:59.202Z,68.10
2019-04-27T13:01:59.076Z,68.87
2019-04-27T13:03:51.802Z,68.00
2019-04-27T13:04:51.738Z,66.85
2019-04-27T13:06:44.520Z,67.61
2019-04-27T13:07:44.451Z,68.26
2019-04-27T13:09:37.281Z,68.64
2019-04-27T13:10:37.194Z,68.64
2019-04-27T13:12:30.016Z,68.96
2019-04-27T13:13:29.945Z,69.35
2019-04-27T13:15:22.795Z,68.74
2019-04-27T13:16:22.693Z,67.58
2019-04-27T13:18:16.702Z,66.71
2019-04-27T13:19:15.847Z,67.10
2019-04-27T13:21:08.202Z,68.64
2019-04-27T13:22:08.127Z,68.06
2019-04-27T13:24:04.399Z,68.44
2019-04-27T13:25:00.895Z,67.58
2019-04-27T13:26:53.769Z,67.10
2019-04-27T13:27:53.702Z,65.85
2019-04-27T13:29:46.731Z,65.75
2019-04-27T13:30:47.537Z,65.27
2019-04-27T13:32:39.195Z,65.56
2019-04-27T13:33:39.121Z,66.81
2019-04-27T13:35:34.031Z,65.37
2019-04-27T13:36:33.182Z,64.40
2019-04-27T13:38:26.638Z,64.98
2019-04-27T13:39:25.779Z,65.56
2019-04-27T13:41:28.245Z,64.89
2019-04-27T13:42:17.298Z,64.79
2019-04-27T13:44:10.083Z,63.54
2019-04-27T13:45:10.102Z,64.98
2019-04-27T13:47:02.812Z,66.04
2019-04-27T13:48:02.765Z,65.50
2019-04-27T13:49:56.309Z,63.95
2019-04-27T13:50:56.485Z,64.82
2019-04-27T13:52:48.256Z,65.20
2019-04-27T13:53:48.182Z,66.55
2019-04-27T13:55:40.950Z,65.01
2019-04-27T13:56:40.946Z,64.63
2019-04-27T13:58:33.665Z,64.34
2019-04-27T13:59:33.602Z,64.53
2019-04-27T14:01:26.376Z,64.53
2019-04-27T14:02:31.858Z,65.08
2019-04-27T14:04:19.081Z,67.19
2019-04-27T14:05:19.040Z,68.26
2019-04-27T14:07:11.817Z,67.49
2019-04-27T14:08:11.734Z,68.19
2019-04-27T14:10:04.503Z,68.16
2019-04-27T14:11:04.447Z,67.61
2019-04-27T14:12:58.953Z,67.19
2019-04-27T14:13:57.155Z,67.03
2019-04-27T14:15:49.942Z,64.79
2019-04-27T14:16:49.875Z,64.31
2019-04-27T14:18:42.689Z,64.79
2019-04-27T14:19:42.578Z,64.59
2019-04-27T14:21:35.399Z,66.36
2019-04-27T14:22:35.344Z,65.01
2019-04-27T14:24:31.878Z,64.40
2019-04-27T14:25:28.094Z,64.43
2019-04-27T14:27:20.822Z,64.89
2019-04-27T14:28:20.740Z,67.33
2019-04-27T14:30:13.563Z,66.94
2019-04-27T14:31:13.494Z,66.07
2019-04-27T14:33:06.293Z,66.85
2019-04-27T14:34:06.215Z,66.17
2019-04-27T14:35:59.489Z,66.27
2019-04-27T14:36:58.916Z,65.88
2019-04-27T14:38:51.718Z,67.61
2019-04-27T14:39:51.624Z,67.39
2019-04-27T14:41:44.483Z,68.54
2019-04-27T14:42:44.428Z,68.35
2019-04-27T14:44:38.835Z,69.38
2019-04-27T14:45:38.276Z,69.47
2019-04-27T14:47:29.971Z,70.05
2019-04-27T14:48:29.903Z,69.22
2019-04-27T14:50:22.673Z,69.85
2019-04-27T14:51:22.605Z,68.60
2019-04-27T14:53:15.392Z,68.41
2019-04-27T14:54:15.376Z,69.09
2019-04-27T14:56:08.821Z,69.18
2019-04-27T14:57:09.141Z,68.99
2019-04-27T14:59:00.894Z,69.85
2019-04-27T15:00:00.767Z,70.24
2019-04-27T15:01:53.589Z,70.72
2019-04-27T15:02:53.523Z,70.34
2019-04-27T15:04:47.324Z,70.62
2019-04-27T15:05:49.802Z,69.92
2019-04-27T15:07:39.046Z,70.21
2019-04-27T15:08:42.639Z,70.72
2019-04-27T15:10:32.969Z,70.62
2019-04-27T15:11:31.746Z,70.53
2019-04-27T15:13:24.487Z,70.72
2019-04-27T15:14:24.407Z,70.24
2019-04-27T15:16:17.187Z,69.95
2019-04-27T15:17:17.697Z,69.67
2019-04-27T15:19:13.238Z,69.53
2019-04-27T15:20:09.833Z,69.95
2019-04-27T15:22:02.647Z,70.59
2019-04-27T15:23:02.576Z,70.34
2019-04-27T15:25:09.319Z,69.85
2019-04-27T15:25:55.331Z,69.85
2019-04-27T15:27:48.095Z,70.53
2019-04-27T15:28:49.392Z,70.43
2019-04-27T15:30:42.523Z,70.53
2019-04-27T15:31:40.931Z,70.50
2019-04-27T15:33:33.535Z,72.90
2019-04-27T15:34:35.573Z,71.94
2019-04-27T15:36:26.258Z,71.94
2019-04-27T15:37:28.226Z,71.08
2019-04-27T15:39:22.533Z,71.71
2019-04-27T15:40:18.978Z,72.38
2019-04-27T15:42:11.694Z,74.11
2019-04-27T15:43:11.653Z,72.48
2019-04-27T15:45:04.435Z,74.60
2019-04-27T15:46:04.346Z,73.63
2019-04-27T15:47:58.423Z,75.27
2019-04-27T15:48:58.846Z,74.60
2019-04-27T15:50:49.880Z,74.98
2019-04-27T15:51:50.723Z,74.60
2019-04-27T15:53:45.878Z,74.98
2019-04-27T15:54:42.520Z,74.69
2019-04-27T15:56:35.543Z,73.60
2019-04-27T15:57:35.218Z,74.46
2019-04-27T15:59:30.943Z,75.13
2019-04-27T16:00:28.777Z,75.42
2019-04-27T16:02:20.774Z,75.13
2019-04-27T16:03:22.791Z,75.62
2019-04-27T16:05:13.496Z,75.23
2019-04-27T16:06:13.433Z,74.55
2019-04-27T16:08:12.569Z,75.42
2019-04-27T16:09:07.688Z,75.42
2019-04-27T16:10:58.955Z,75.23
2019-04-27T16:12:09.548Z,74.37
2019-04-27T16:13:51.615Z,75.62
2019-04-27T16:14:51.519Z,75.23
2019-04-27T16:16:44.293Z,76.19
2019-04-27T16:17:53.289Z,75.62
2019-04-27T16:19:40.688Z,76.00
2019-04-27T16:20:38.096Z,76.67
2019-04-27T16:22:29.766Z,76.57
2019-04-27T16:23:29.710Z,77.06
2019-04-27T16:25:23.523Z,76.19
2019-04-27T16:26:22.419Z,77.25
2019-04-27T16:28:15.218Z,78.21
2019-04-27T16:29:15.151Z,78.40
2019-04-27T16:31:07.942Z,77.63
2019-04-27T16:32:11.326Z,76.77
2019-04-27T16:34:02.766Z,76.19
2019-04-27T16:35:00.652Z,77.06
2019-04-27T16:36:53.434Z,75.13
2019-04-27T16:37:56.358Z,73.85
2019-04-27T16:39:47.880Z,74.43
2019-04-27T16:40:46.054Z,74.23
2019-04-27T16:42:40.711Z,75.29
2019-04-27T16:43:38.782Z,75.00
2019-04-27T16:45:31.595Z,75.10
2019-04-27T16:46:34.979Z,74.71
2019-04-27T16:48:29.625Z,74.39
2019-04-27T16:49:24.273Z,74.48
2019-04-27T16:51:18.341Z,74.87
2019-04-27T16:52:19.085Z,75.63
2019-04-27T16:54:11.185Z,74.96
2019-04-27T16:55:09.669Z,74.96
2019-04-27T16:57:05.280Z,75.63
2019-04-27T16:58:02.403Z,75.25
2019-04-27T16:59:59.194Z,74.96
2019-04-27T17:00:55.131Z,75.63
2019-04-27T17:02:49.128Z,75.45
2019-04-27T17:03:48.500Z,75.73
2019-04-27T17:05:40.633Z,75.06
2019-04-27T17:06:45.986Z,74.48
2019-04-27T17:08:33.319Z,74.68
2019-04-27T17:09:36.415Z,75.15
2019-04-27T17:11:26.145Z,74.96
2019-04-27T17:12:29.761Z,74.77
2019-04-27T17:14:22.433Z,74.96
2019-04-27T17:15:18.985Z,74.68
2019-04-27T17:17:12.074Z,74.87
2019-04-27T17:18:11.371Z,74.68
2019-04-27T17:20:04.167Z,74.68
2019-04-27T17:21:16.099Z,75.15
2019-04-27T17:22:58.298Z,75.35
2019-04-27T17:24:02.692Z,75.45
2019-04-27T17:25:52.875Z,76.40
2019-04-27T17:26:49.560Z,76.40
2019-04-27T17:28:42.339Z,76.40
2019-04-27T17:29:42.267Z,76.40
2019-04-27T17:31:35.041Z,77.08
2019-04-27T17:32:34.965Z,77.17
2019-04-27T17:34:28.614Z,77.65
2019-04-27T17:35:28.529Z,77.75
2019-04-27T17:37:20.442Z,78.00
2019-04-27T17:38:20.364Z,78.19
2019-04-27T17:40:15.382Z,78.28
2019-04-27T17:41:13.064Z,78.52
2019-04-27T17:43:08.029Z,78.96
2019-04-27T17:44:05.797Z,78.67
2019-04-27T17:45:58.571Z,78.96
2019-04-27T17:46:58.504Z,78.86
2019-04-27T17:48:51.272Z,79.44
2019-04-27T17:49:51.201Z,79.72
2019-04-27T17:51:44.426Z,79.91
2019-04-27T17:52:48.535Z,80.40
2019-04-27T17:54:42.526Z,81.07
2019-04-27T17:55:36.665Z,80.68
2019-04-27T17:57:30.215Z,81.45
2019-04-27T17:58:29.357Z,81.64
2019-04-27T18:00:22.112Z,81.84
2019-04-27T18:01:26.552Z,82.41
2019-04-27T18:03:17.539Z,82.60
2019-04-27T18:04:14.750Z,83.18
2019-04-27T18:06:08.683Z,83.18
2019-04-27T18:07:08.928Z,83.08
2019-04-27T18:09:03.269Z,84.04
2019-04-27T18:10:00.173Z,84.09
2019-04-27T18:11:54.478Z,84.38
2019-04-27T18:12:52.889Z,85.28
2019-04-27T18:14:45.684Z,84.95
2019-04-27T18:15:49.769Z,85.44
2019-04-27T18:17:40.973Z,86.58
2019-04-27T18:18:40.304Z,86.30
2019-04-27T18:20:31.076Z,86.88
2019-04-27T18:21:31.015Z,87.64
2019-04-27T18:23:23.844Z,87.45
2019-04-27T18:24:25.063Z,88.02
2019-04-27T18:26:17.500Z,88.02
2019-04-27T18:27:18.244Z,88.60
2019-04-27T18:29:09.210Z,88.51
2019-04-27T18:30:10.595Z,87.84
2019-04-27T18:32:01.919Z,88.22